Ashland, Maine
Current Conditions -  °F | °C
As of 10:35 AM on Saturday 25 Oct 2014 (Local Time) from KPQI Reporting Station
Overcast Overcast  
Wind Chill: 37°   Ceiling: 2300
Heat Index: 43°   Visibility: 10mi
Dew Point: 37°   Wind: 12mph
Humidity: 81%   Direction: 10°N
Pressure: 29.62"   Gusts: NA
Location:  46.63°N, 68.41°W
Report Text: KPQI 251435Z AUTO 01010KT 10SM FEW011 OVC023 06/03 A2962 RMK AO1
Loading
Personal Weather Stations






























Interactive Weather Map New forecast layout! Learn more

10-Day Weather Forecast

Advertisements
Track Severe Weather on mobile